首页
METAR-TAF:

METAR-TAF

机场 :

McGhee Tyson Airport

諾克斯維爾, 田纳西州, 美国

纬度: 35-49-05N, 经度: 083-59-09W, 海拔: 299米

当前天气观测

该预报发布于16分钟前的13:53 UTC
风速6节,风向东北
温度 22°C
湿度 73%
气压 1019 hPa
能見度: 16.1公里
散云层高于1600英尺
多云层高于3500英尺
阴天层高于6500英尺

METAR: KTYS 251353Z 05006KT 10SM SCT016 BKN035 OVC065 22/17 A3009 RMK AO2 SLP179 T02170167 $

时间: 10:09 (14:09 UTC)

预报

该预报发布于1小时和9分钟前的13:00 UTC
预报有效从25日的 13点(UTC)到 26日的 12点(UTC)
风速6节,风向东北
能見度: 10公里
散云层高于3000英尺
多云层高于5000英尺
阴天层高于8000英尺
从 25日的 2100点(UTC)
风速6节,风向东转东南
能見度: 10公里
散云层高于3000英尺, 积雨云.
多云层高于5000英尺
附近有雷暴
从 26日的 0300点(UTC)
风速3节,风向多变
能見度: 10公里
多云层高于3000英尺

TAF: KTYS 251300Z 2513/2612 04006KT P6SM SCT030 BKN050 OVC080 FM252100 12006KT P6SM VCTS SCT030CB BKN050 FM260300 VRB03KT P6SM BKN030

超过4000个机场的气象观测和天气预报(METAR&TAF报告)。

可查询的气象台以黄色和红色小点在地图上表示。

将鼠标移到小点上方,可查看气象台名称。

然后点击查看天气观测和预报。

如需切换地图:点击带黑十字的绿色按钮放大地图;点击带横线的绿色按钮缩小地图;或者点击绿色箭头查看邻近地区的地图。


METAR-TAF: